sensor_id;sensor_type;location;lat;lon;timestamp;P1;durP1;ratioP1;P2;durP2;ratioP2
52742;SDS011;55583;53.012;6.556;2023-04-03T00:01:28;2.25;;;1.08;;
52742;SDS011;55583;53.012;6.556;2023-04-03T00:03:54;4.18;;;1.00;;
52742;SDS011;55583;53.012;6.556;2023-04-03T00:06:20;3.42;;;1.98;;
52742;SDS011;55583;53.012;6.556;2023-04-03T00:08:47;2.42;;;1.27;;
52742;SDS011;55583;53.012;6.556;2023-04-03T00:11:13;2.78;;;1.33;;
52742;SDS011;55583;53.012;6.556;2023-04-03T00:13:39;1.98;;;0.98;;
52742;SDS011;55583;53.012;6.556;2023-04-03T00:16:08;1.55;;;0.95;;
52742;SDS011;55583;53.012;6.556;2023-04-03T00:18:35;4.32;;;1.20;;
52742;SDS011;55583;53.012;6.556;2023-04-03T00:21:04;2.40;;;1.25;;
52742;SDS011;55583;53.012;6.556;2023-04-03T00:23:31;1.50;;;1.10;;
52742;SDS011;55583;53.012;6.556;2023-04-03T00:25:56;1.70;;;1.00;;
52742;SDS011;55583;53.012;6.556;2023-04-03T00:28:22;1.70;;;1.10;;
52742;SDS011;55583;53.012;6.556;2023-04-03T00:30:48;4.13;;;1.65;;
52742;SDS011;55583;53.012;6.556;2023-04-03T00:33:14;4.70;;;1.42;;
52742;SDS011;55583;53.012;6.556;2023-04-03T00:35:40;4.18;;;1.42;;
52742;SDS011;55583;53.012;6.556;2023-04-03T00:38:06;2.03;;;1.55;;
52742;SDS011;55583;53.012;6.556;2023-04-03T00:40:33;1.77;;;1.25;;
52742;SDS011;55583;53.012;6.556;2023-04-03T00:43:01;2.78;;;1.30;;
52742;SDS011;55583;53.012;6.556;2023-04-03T00:45:37;3.50;;;1.48;;
52742;SDS011;55583;53.012;6.556;2023-04-03T00:48:07;2.75;;;1.65;;
52742;SDS011;55583;53.012;6.556;2023-04-03T00:50:35;2.30;;;1.58;;
52742;SDS011;55583;53.012;6.556;2023-04-03T00:53:03;6.93;;;1.30;;
52742;SDS011;55583;53.012;6.556;2023-04-03T00:55:31;3.65;;;1.42;;
52742;SDS011;55583;53.012;6.556;2023-04-03T00:57:58;5.03;;;1.23;;
52742;SDS011;55583;53.012;6.556;2023-04-03T01:00:26;4.43;;;1.13;;
52742;SDS011;55583;53.012;6.556;2023-04-03T01:02:52;7.28;;;1.60;;
52742;SDS011;55583;53.012;6.556;2023-04-03T01:05:19;6.15;;;1.70;;
52742;SDS011;55583;53.012;6.556;2023-04-03T01:07:46;3.13;;;1.55;;
52742;SDS011;55583;53.012;6.556;2023-04-03T01:10:13;7.68;;;3.13;;
52742;SDS011;55583;53.012;6.556;2023-04-03T01:12:41;3.42;;;1.33;;
52742;SDS011;55583;53.012;6.556;2023-04-03T01:15:16;7.25;;;1.90;;
52742;SDS011;55583;53.012;6.556;2023-04-03T01:17:46;5.20;;;1.70;;
52742;SDS011;55583;53.012;6.556;2023-04-03T01:25:33;6.88;;;1.30;;
52742;SDS011;55583;53.012;6.556;2023-04-03T01:27:59;5.68;;;1.50;;
52742;SDS011;55583;53.012;6.556;2023-04-03T01:30:28;5.70;;;1.88;;
52742;SDS011;55583;53.012;6.556;2023-04-03T01:32:57;3.15;;;1.80;;
52742;SDS011;55583;53.012;6.556;2023-04-03T01:35:22;9.65;;;2.42;;
52742;SDS011;55583;53.012;6.556;2023-04-03T01:37:48;3.20;;;1.30;;
52742;SDS011;55583;53.012;6.556;2023-04-03T01:40:14;7.43;;;1.40;;
52742;SDS011;55583;53.012;6.556;2023-04-03T01:42:40;4.03;;;1.60;;
52742;SDS011;55583;53.012;6.556;2023-04-03T01:45:05;6.50;;;2.30;;
52742;SDS011;55583;53.012;6.556;2023-04-03T01:47:31;3.88;;;2.00;;
52742;SDS011;55583;53.012;6.556;2023-04-03T01:49:57;5.70;;;2.05;;
52742;SDS011;55583;53.012;6.556;2023-04-03T01:52:23;5.85;;;1.90;;
52742;SDS011;55583;53.012;6.556;2023-04-03T01:54:48;4.90;;;1.95;;
52742;SDS011;55583;53.012;6.556;2023-04-03T01:57:15;10.20;;;3.33;;
52742;SDS011;55583;53.012;6.556;2023-04-03T01:59:41;2.97;;;1.67;;
52742;SDS011;55583;53.012;6.556;2023-04-03T02:02:06;2.97;;;1.80;;
52742;SDS011;55583;53.012;6.556;2023-04-03T02:04:32;7.80;;;1.75;;
52742;SDS011;55583;53.012;6.556;2023-04-03T02:06:58;4.75;;;1.80;;
52742;SDS011;55583;53.012;6.556;2023-04-03T02:09:24;4.03;;;1.63;;
52742;SDS011;55583;53.012;6.556;2023-04-03T02:11:49;6.60;;;1.38;;
52742;SDS011;55583;53.012;6.556;2023-04-03T02:14:18;3.53;;;2.25;;
52742;SDS011;55583;53.012;6.556;2023-04-03T02:16:44;5.90;;;2.60;;
52742;SDS011;55583;53.012;6.556;2023-04-03T02:19:09;13.88;;;2.92;;
52742;SDS011;55583;53.012;6.556;2023-04-03T02:21:35;9.82;;;2.70;;
52742;SDS011;55583;53.012;6.556;2023-04-03T02:24:04;6.32;;;2.03;;
52742;SDS011;55583;53.012;6.556;2023-04-03T02:26:30;7.10;;;2.20;;
52742;SDS011;55583;53.012;6.556;2023-04-03T02:28:56;7.97;;;2.05;;
52742;SDS011;55583;53.012;6.556;2023-04-03T02:31:21;8.27;;;2.35;;
52742;SDS011;55583;53.012;6.556;2023-04-03T02:33:47;5.55;;;1.98;;
52742;SDS011;55583;53.012;6.556;2023-04-03T02:36:13;8.57;;;2.45;;
52742;SDS011;55583;53.012;6.556;2023-04-03T02:38:39;6.18;;;2.50;;
52742;SDS011;55583;53.012;6.556;2023-04-03T02:41:09;4.03;;;1.88;;
52742;SDS011;55583;53.012;6.556;2023-04-03T02:43:36;7.13;;;1.70;;
52742;SDS011;55583;53.012;6.556;2023-04-03T02:46:02;4.63;;;2.10;;
52742;SDS011;55583;53.012;6.556;2023-04-03T02:48:28;10.75;;;2.90;;
52742;SDS011;55583;53.012;6.556;2023-04-03T02:50:53;7.15;;;2.08;;
52742;SDS011;55583;53.012;6.556;2023-04-03T02:53:19;7.55;;;1.90;;
52742;SDS011;55583;53.012;6.556;2023-04-03T02:55:45;6.80;;;2.40;;
52742;SDS011;55583;53.012;6.556;2023-04-03T02:58:11;8.80;;;2.67;;
52742;SDS011;55583;53.012;6.556;2023-04-03T03:00:37;8.00;;;2.08;;
52742;SDS011;55583;53.012;6.556;2023-04-03T03:03:03;5.30;;;2.40;;
52742;SDS011;55583;53.012;6.556;2023-04-03T03:05:29;6.80;;;2.15;;
52742;SDS011;55583;53.012;6.556;2023-04-03T03:07:55;5.72;;;2.15;;
52742;SDS011;55583;53.012;6.556;2023-04-03T03:10:20;6.68;;;2.05;;
52742;SDS011;55583;53.012;6.556;2023-04-03T03:12:46;4.28;;;2.45;;
52742;SDS011;55583;53.012;6.556;2023-04-03T03:15:12;6.50;;;2.30;;
52742;SDS011;55583;53.012;6.556;2023-04-03T03:17:38;10.50;;;2.65;;
52742;SDS011;55583;53.012;6.556;2023-04-03T03:20:04;4.60;;;2.40;;
52742;SDS011;55583;53.012;6.556;2023-04-03T03:22:30;8.63;;;2.45;;
52742;SDS011;55583;53.012;6.556;2023-04-03T03:24:56;12.18;;;2.80;;
52742;SDS011;55583;53.012;6.556;2023-04-03T03:27:22;6.00;;;2.33;;
52742;SDS011;55583;53.012;6.556;2023-04-03T03:29:48;8.13;;;2.88;;
52742;SDS011;55583;53.012;6.556;2023-04-03T03:32:14;5.68;;;2.45;;
52742;SDS011;55583;53.012;6.556;2023-04-03T03:34:40;7.50;;;2.67;;
52742;SDS011;55583;53.012;6.556;2023-04-03T03:37:05;8.07;;;2.42;;
52742;SDS011;55583;53.012;6.556;2023-04-03T03:39:31;6.43;;;2.20;;
52742;SDS011;55583;53.012;6.556;2023-04-03T03:41:57;13.00;;;2.53;;
52742;SDS011;55583;53.012;6.556;2023-04-03T03:44:22;5.00;;;2.33;;
52742;SDS011;55583;53.012;6.556;2023-04-03T03:46:48;6.20;;;2.38;;
52742;SDS011;55583;53.012;6.556;2023-04-03T03:49:13;5.40;;;2.42;;
52742;SDS011;55583;53.012;6.556;2023-04-03T03:51:39;8.90;;;2.90;;
52742;SDS011;55583;53.012;6.556;2023-04-03T03:54:05;6.32;;;2.85;;
52742;SDS011;55583;53.012;6.556;2023-04-03T03:56:31;5.30;;;2.20;;
52742;SDS011;55583;53.012;6.556;2023-04-03T03:58:57;9.73;;;2.90;;
52742;SDS011;55583;53.012;6.556;2023-04-03T04:01:23;5.85;;;2.63;;
52742;SDS011;55583;53.012;6.556;2023-04-03T04:03:49;11.30;;;3.40;;
52742;SDS011;55583;53.012;6.556;2023-04-03T04:06:15;7.80;;;2.72;;
52742;SDS011;55583;53.012;6.556;2023-04-03T04:08:41;5.75;;;2.65;;
52742;SDS011;55583;53.012;6.556;2023-04-03T04:11:07;8.90;;;2.95;;
52742;SDS011;55583;53.012;6.556;2023-04-03T04:13:33;10.73;;;3.05;;
52742;SDS011;55583;53.012;6.556;2023-04-03T04:15:59;9.45;;;3.10;;
52742;SDS011;55583;53.012;6.556;2023-04-03T04:18:24;6.55;;;2.83;;
52742;SDS011;55583;53.012;6.556;2023-04-03T04:20:50;11.95;;;3.80;;
52742;SDS011;55583;53.012;6.556;2023-04-03T04:23:16;16.42;;;3.63;;
52742;SDS011;55583;53.012;6.556;2023-04-03T04:25:46;7.28;;;3.03;;
52742;SDS011;55583;53.012;6.556;2023-04-03T04:28:13;12.95;;;3.00;;
52742;SDS011;55583;53.012;6.556;2023-04-03T04:30:38;13.57;;;3.63;;
52742;SDS011;55583;53.012;6.556;2023-04-03T04:33:04;8.98;;;3.30;;
52742;SDS011;55583;53.012;6.556;2023-04-03T04:35:30;7.63;;;3.10;;
52742;SDS011;55583;53.012;6.556;2023-04-03T04:37:56;18.83;;;3.38;;
52742;SDS011;55583;53.012;6.556;2023-04-03T04:40:21;6.15;;;3.35;;
52742;SDS011;55583;53.012;6.556;2023-04-03T04:42:47;8.02;;;3.50;;
52742;SDS011;55583;53.012;6.556;2023-04-03T04:45:13;7.25;;;3.22;;
52742;SDS011;55583;53.012;6.556;2023-04-03T04:47:40;8.30;;;3.55;;
52742;SDS011;55583;53.012;6.556;2023-04-03T04:50:06;8.38;;;3.38;;
52742;SDS011;55583;53.012;6.556;2023-04-03T04:52:32;9.43;;;3.40;;
52742;SDS011;55583;53.012;6.556;2023-04-03T04:54:58;10.27;;;3.63;;
52742;SDS011;55583;53.012;6.556;2023-04-03T04:57:23;9.75;;;3.83;;
52742;SDS011;55583;53.012;6.556;2023-04-03T04:59:54;10.07;;;3.35;;
52742;SDS011;55583;53.012;6.556;2023-04-03T05:02:20;7.32;;;3.47;;
52742;SDS011;55583;53.012;6.556;2023-04-03T05:04:46;10.77;;;3.72;;
52742;SDS011;55583;53.012;6.556;2023-04-03T05:07:11;13.52;;;4.07;;
52742;SDS011;55583;53.012;6.556;2023-04-03T05:09:37;9.30;;;3.88;;
52742;SDS011;55583;53.012;6.556;2023-04-03T05:12:03;12.98;;;4.85;;
52742;SDS011;55583;53.012;6.556;2023-04-03T05:14:29;9.95;;;4.13;;
52742;SDS011;55583;53.012;6.556;2023-04-03T05:16:56;10.98;;;4.47;;
52742;SDS011;55583;53.012;6.556;2023-04-03T05:19:22;8.68;;;3.88;;
52742;SDS011;55583;53.012;6.556;2023-04-03T05:21:50;11.63;;;3.38;;
52742;SDS011;55583;53.012;6.556;2023-04-03T05:24:16;6.93;;;3.83;;
52742;SDS011;55583;53.012;6.556;2023-04-03T05:26:42;13.30;;;4.10;;
52742;SDS011;55583;53.012;6.556;2023-04-03T05:29:08;24.95;;;4.03;;
52742;SDS011;55583;53.012;6.556;2023-04-03T05:31:35;15.55;;;4.05;;
52742;SDS011;55583;53.012;6.556;2023-04-03T05:34:00;9.07;;;4.63;;
52742;SDS011;55583;53.012;6.556;2023-04-03T05:36:26;10.70;;;3.83;;
52742;SDS011;55583;53.012;6.556;2023-04-03T05:38:52;13.65;;;3.75;;
52742;SDS011;55583;53.012;6.556;2023-04-03T05:41:18;10.90;;;3.90;;
52742;SDS011;55583;53.012;6.556;2023-04-03T05:43:46;11.95;;;3.70;;
52742;SDS011;55583;53.012;6.556;2023-04-03T05:46:12;19.88;;;5.03;;
52742;SDS011;55583;53.012;6.556;2023-04-03T05:48:41;13.52;;;3.60;;
52742;SDS011;55583;53.012;6.556;2023-04-03T05:51:09;10.13;;;4.35;;
52742;SDS011;55583;53.012;6.556;2023-04-03T05:53:44;12.13;;;4.03;;
52742;SDS011;55583;53.012;6.556;2023-04-03T05:56:11;9.98;;;3.83;;
52742;SDS011;55583;53.012;6.556;2023-04-03T05:58:37;14.50;;;4.32;;
52742;SDS011;55583;53.012;6.556;2023-04-03T06:01:03;21.63;;;4.25;;
52742;SDS011;55583;53.012;6.556;2023-04-03T06:03:30;16.90;;;4.32;;
52742;SDS011;55583;53.012;6.556;2023-04-03T06:05:56;11.40;;;5.15;;
52742;SDS011;55583;53.012;6.556;2023-04-03T06:08:22;11.48;;;4.25;;
52742;SDS011;55583;53.012;6.556;2023-04-03T06:10:48;12.75;;;4.50;;
52742;SDS011;55583;53.012;6.556;2023-04-03T06:13:15;10.70;;;5.55;;
52742;SDS011;55583;53.012;6.556;2023-04-03T06:15:41;21.13;;;4.57;;
52742;SDS011;55583;53.012;6.556;2023-04-03T06:18:07;13.20;;;4.10;;
52742;SDS011;55583;53.012;6.556;2023-04-03T06:20:33;12.88;;;5.22;;
52742;SDS011;55583;53.012;6.556;2023-04-03T06:22:59;12.07;;;4.57;;
52742;SDS011;55583;53.012;6.556;2023-04-03T06:25:25;12.75;;;4.97;;
52742;SDS011;55583;53.012;6.556;2023-04-03T06:27:51;21.02;;;4.10;;
52742;SDS011;55583;53.012;6.556;2023-04-03T06:30:17;12.23;;;4.05;;
52742;SDS011;55583;53.012;6.556;2023-04-03T06:32:43;12.02;;;3.90;;
52742;SDS011;55583;53.012;6.556;2023-04-03T06:35:08;14.57;;;4.55;;
52742;SDS011;55583;53.012;6.556;2023-04-03T06:37:34;14.45;;;5.13;;
52742;SDS011;55583;53.012;6.556;2023-04-03T06:40:00;10.45;;;5.00;;
52742;SDS011;55583;53.012;6.556;2023-04-03T06:42:26;8.10;;;3.40;;
52742;SDS011;55583;53.012;6.556;2023-04-03T06:44:52;17.63;;;4.00;;
52742;SDS011;55583;53.012;6.556;2023-04-03T06:47:17;14.07;;;3.78;;
52742;SDS011;55583;53.012;6.556;2023-04-03T06:49:43;8.02;;;3.65;;
52742;SDS011;55583;53.012;6.556;2023-04-03T06:52:10;12.68;;;3.95;;
52742;SDS011;55583;53.012;6.556;2023-04-03T06:54:37;12.63;;;4.28;;
52742;SDS011;55583;53.012;6.556;2023-04-03T06:57:03;8.60;;;3.78;;
52742;SDS011;55583;53.012;6.556;2023-04-03T06:59:29;8.25;;;3.58;;
52742;SDS011;55583;53.012;6.556;2023-04-03T07:01:55;11.25;;;3.15;;
52742;SDS011;55583;53.012;6.556;2023-04-03T07:04:20;10.10;;;3.42;;
52742;SDS011;55583;53.012;6.556;2023-04-03T07:06:46;7.93;;;2.80;;
52742;SDS011;55583;53.012;6.556;2023-04-03T07:09:12;8.23;;;3.15;;
52742;SDS011;55583;53.012;6.556;2023-04-03T07:11:39;10.95;;;3.53;;
52742;SDS011;55583;53.012;6.556;2023-04-03T07:14:05;6.40;;;2.92;;
52742;SDS011;55583;53.012;6.556;2023-04-03T07:16:32;8.05;;;2.97;;
52742;SDS011;55583;53.012;6.556;2023-04-03T07:19:02;9.90;;;3.72;;
52742;SDS011;55583;53.012;6.556;2023-04-03T07:21:28;11.25;;;2.55;;
52742;SDS011;55583;53.012;6.556;2023-04-03T07:23:54;7.30;;;2.85;;
52742;SDS011;55583;53.012;6.556;2023-04-03T07:26:19;10.93;;;3.17;;
52742;SDS011;55583;53.012;6.556;2023-04-03T07:28:46;6.30;;;2.88;;
52742;SDS011;55583;53.012;6.556;2023-04-03T07:31:13;7.88;;;3.05;;
52742;SDS011;55583;53.012;6.556;2023-04-03T07:33:42;7.32;;;2.58;;
52742;SDS011;55583;53.012;6.556;2023-04-03T07:36:08;8.77;;;2.42;;
52742;SDS011;55583;53.012;6.556;2023-04-03T07:38:35;8.73;;;2.90;;
52742;SDS011;55583;53.012;6.556;2023-04-03T07:41:01;11.30;;;2.88;;
52742;SDS011;55583;53.012;6.556;2023-04-03T07:43:27;9.52;;;3.00;;
52742;SDS011;55583;53.012;6.556;2023-04-03T07:45:53;8.05;;;2.60;;
52742;SDS011;55583;53.012;6.556;2023-04-03T07:48:23;8.70;;;2.47;;
52742;SDS011;55583;53.012;6.556;2023-04-03T07:50:50;7.57;;;2.60;;
52742;SDS011;55583;53.012;6.556;2023-04-03T07:53:17;5.18;;;2.25;;
52742;SDS011;55583;53.012;6.556;2023-04-03T07:55:42;11.57;;;2.70;;
52742;SDS011;55583;53.012;6.556;2023-04-03T07:58:12;5.68;;;2.40;;
52742;SDS011;55583;53.012;6.556;2023-04-03T08:00:39;9.43;;;2.40;;
52742;SDS011;55583;53.012;6.556;2023-04-03T08:03:06;9.45;;;2.90;;
52742;SDS011;55583;53.012;6.556;2023-04-03T08:05:37;5.22;;;1.88;;
52742;SDS011;55583;53.012;6.556;2023-04-03T08:08:05;4.50;;;2.10;;
52742;SDS011;55583;53.012;6.556;2023-04-03T08:10:31;6.57;;;2.40;;
52742;SDS011;55583;53.012;6.556;2023-04-03T08:12:57;5.32;;;2.25;;
52742;SDS011;55583;53.012;6.556;2023-04-03T08:15:23;8.25;;;2.35;;
52742;SDS011;55583;53.012;6.556;2023-04-03T08:17:49;4.65;;;2.22;;
52742;SDS011;55583;53.012;6.556;2023-04-03T08:20:15;7.07;;;2.22;;
52742;SDS011;55583;53.012;6.556;2023-04-03T08:22:41;5.72;;;2.00;;
52742;SDS011;55583;53.012;6.556;2023-04-03T08:25:07;12.13;;;3.05;;
52742;SDS011;55583;53.012;6.556;2023-04-03T08:27:33;5.15;;;1.85;;
52742;SDS011;55583;53.012;6.556;2023-04-03T08:29:58;8.07;;;1.75;;
52742;SDS011;55583;53.012;6.556;2023-04-03T08:32:25;5.43;;;2.28;;
52742;SDS011;55583;53.012;6.556;2023-04-03T08:34:50;5.50;;;1.92;;
52742;SDS011;55583;53.012;6.556;2023-04-03T08:37:16;8.90;;;1.65;;
52742;SDS011;55583;53.012;6.556;2023-04-03T08:39:42;3.45;;;1.90;;
52742;SDS011;55583;53.012;6.556;2023-04-03T08:42:16;6.10;;;1.92;;
52742;SDS011;55583;53.012;6.556;2023-04-03T08:45:01;5.22;;;2.33;;
52742;SDS011;55583;53.012;6.556;2023-04-03T08:48:04;5.43;;;1.38;;
52742;SDS011;55583;53.012;6.556;2023-04-03T08:50:39;6.65;;;2.13;;
52742;SDS011;55583;53.012;6.556;2023-04-03T08:53:11;4.78;;;1.60;;
52742;SDS011;55583;53.012;6.556;2023-04-03T08:55:50;3.85;;;1.50;;
52742;SDS011;55583;53.012;6.556;2023-04-03T08:58:20;5.75;;;1.85;;
52742;SDS011;55583;53.012;6.556;2023-04-03T09:00:56;8.40;;;2.00;;
52742;SDS011;55583;53.012;6.556;2023-04-03T09:03:28;5.65;;;1.60;;
52742;SDS011;55583;53.012;6.556;2023-04-03T09:08:40;3.78;;;1.42;;
52742;SDS011;55583;53.012;6.556;2023-04-03T09:19:18;5.80;;;1.80;;
52742;SDS011;55583;53.012;6.556;2023-04-03T09:24:55;4.93;;;1.95;;
52742;SDS011;55583;53.012;6.556;2023-04-03T09:27:22;2.38;;;1.50;;
52742;SDS011;55583;53.012;6.556;2023-04-03T09:29:48;4.63;;;1.58;;
52742;SDS011;55583;53.012;6.556;2023-04-03T09:32:38;2.33;;;1.33;;
52742;SDS011;55583;53.012;6.556;2023-04-03T09:35:04;2.67;;;1.55;;
52742;SDS011;55583;53.012;6.556;2023-04-03T09:37:44;4.18;;;1.60;;
52742;SDS011;55583;53.012;6.556;2023-04-03T09:42:59;2.75;;;1.52;;
52742;SDS011;55583;53.012;6.556;2023-04-03T09:45:33;3.75;;;1.20;;
52742;SDS011;55583;53.012;6.556;2023-04-03T09:48:12;2.95;;;1.00;;
52742;SDS011;55583;53.012;6.556;2023-04-03T09:53:40;3.70;;;1.27;;
52742;SDS011;55583;53.012;6.556;2023-04-03T09:58:42;3.80;;;1.55;;
52742;SDS011;55583;53.012;6.556;2023-04-03T10:04:09;2.17;;;1.02;;
52742;SDS011;55583;53.012;6.556;2023-04-03T10:06:46;3.10;;;0.98;;
52742;SDS011;55583;53.012;6.556;2023-04-03T10:09:26;4.28;;;1.10;;
52742;SDS011;55583;53.012;6.556;2023-04-03T10:11:57;2.90;;;1.33;;
52742;SDS011;55583;53.012;6.556;2023-04-03T10:14:26;4.70;;;0.90;;
52742;SDS011;55583;53.012;6.556;2023-04-03T10:27:55;3.63;;;1.20;;
52742;SDS011;55583;53.012;6.556;2023-04-03T10:46:01;3.33;;;1.25;;
52742;SDS011;55583;53.012;6.556;2023-04-03T10:56:39;1.58;;;1.00;;
52742;SDS011;55583;53.012;6.556;2023-04-03T10:59:18;2.25;;;0.90;;
52742;SDS011;55583;53.012;6.556;2023-04-03T11:02:05;2.15;;;0.90;;
52742;SDS011;55583;53.012;6.556;2023-04-03T11:04:53;2.85;;;0.98;;
52742;SDS011;55583;53.012;6.556;2023-04-03T11:07:26;2.08;;;1.20;;
52742;SDS011;55583;53.012;6.556;2023-04-03T11:09:57;1.63;;;1.42;;
52742;SDS011;55583;53.012;6.556;2023-04-03T11:12:44;3.05;;;1.13;;
52742;SDS011;55583;53.012;6.556;2023-04-03T11:15:17;2.05;;;1.02;;
52742;SDS011;55583;53.012;6.556;2023-04-03T11:17:57;2.25;;;1.38;;
52742;SDS011;55583;53.012;6.556;2023-04-03T11:20:31;4.22;;;1.52;;
52742;SDS011;55583;53.012;6.556;2023-04-03T11:23:19;1.77;;;1.13;;
52742;SDS011;55583;53.012;6.556;2023-04-03T11:25:51;3.35;;;1.17;;
52742;SDS011;55583;53.012;6.556;2023-04-03T11:28:19;1.70;;;1.25;;
52742;SDS011;55583;53.012;6.556;2023-04-03T11:36:21;2.42;;;1.00;;
52742;SDS011;55583;53.012;6.556;2023-04-03T11:39:18;2.60;;;1.13;;
52742;SDS011;55583;53.012;6.556;2023-04-03T11:41:45;3.53;;;1.20;;
52742;SDS011;55583;53.012;6.556;2023-04-03T11:47:10;1.85;;;1.00;;
52742;SDS011;55583;53.012;6.556;2023-04-03T11:50:03;2.47;;;1.33;;
52742;SDS011;55583;53.012;6.556;2023-04-03T12:16:23;2.42;;;1.25;;
52742;SDS011;55583;53.012;6.556;2023-04-03T12:40:50;2.63;;;1.15;;
52742;SDS011;55583;53.012;6.556;2023-04-03T12:51:09;2.58;;;1.52;;
52742;SDS011;55583;53.012;6.556;2023-04-03T12:53:40;1.88;;;0.98;;
52742;SDS011;55583;53.012;6.556;2023-04-03T12:56:23;2.83;;;1.30;;
52742;SDS011;55583;53.012;6.556;2023-04-03T12:58:51;4.07;;;1.58;;
52742;SDS011;55583;53.012;6.556;2023-04-03T13:01:37;2.83;;;1.20;;
52742;SDS011;55583;53.012;6.556;2023-04-03T13:04:03;3.92;;;1.42;;
52742;SDS011;55583;53.012;6.556;2023-04-03T13:06:39;3.97;;;1.50;;
52742;SDS011;55583;53.012;6.556;2023-04-03T13:09:17;2.58;;;1.25;;
52742;SDS011;55583;53.012;6.556;2023-04-03T13:11:51;4.50;;;1.80;;
52742;SDS011;55583;53.012;6.556;2023-04-03T13:14:27;3.50;;;1.45;;
52742;SDS011;55583;53.012;6.556;2023-04-03T13:16:57;1.30;;;1.20;;
52742;SDS011;55583;53.012;6.556;2023-04-03T13:19:24;1.90;;;1.17;;
52742;SDS011;55583;53.012;6.556;2023-04-03T13:21:53;3.60;;;1.63;;
52742;SDS011;55583;53.012;6.556;2023-04-03T13:24:28;7.13;;;1.55;;
52742;SDS011;55583;53.012;6.556;2023-04-03T13:26:56;4.93;;;1.00;;
52742;SDS011;55583;53.012;6.556;2023-04-03T13:29:24;5.18;;;1.80;;
52742;SDS011;55583;53.012;6.556;2023-04-03T13:31:54;3.70;;;1.80;;
52742;SDS011;55583;53.012;6.556;2023-04-03T13:34:21;1.70;;;1.38;;
52742;SDS011;55583;53.012;6.556;2023-04-03T13:36:59;2.28;;;1.25;;
52742;SDS011;55583;53.012;6.556;2023-04-03T13:39:28;3.55;;;1.27;;
52742;SDS011;55583;53.012;6.556;2023-04-03T13:41:56;3.25;;;1.85;;
52742;SDS011;55583;53.012;6.556;2023-04-03T13:44:26;4.03;;;1.70;;
52742;SDS011;55583;53.012;6.556;2023-04-03T13:46:59;2.95;;;1.40;;
52742;SDS011;55583;53.012;6.556;2023-04-03T13:49:41;6.28;;;1.95;;
52742;SDS011;55583;53.012;6.556;2023-04-03T13:54:47;4.45;;;1.55;;
52742;SDS011;55583;53.012;6.556;2023-04-03T13:57:19;2.40;;;1.30;;
52742;SDS011;55583;53.012;6.556;2023-04-03T13:59:45;4.30;;;1.40;;
52742;SDS011;55583;53.012;6.556;2023-04-03T14:02:17;2.47;;;1.33;;
52742;SDS011;55583;53.012;6.556;2023-04-03T14:07:15;3.60;;;1.13;;
52742;SDS011;55583;53.012;6.556;2023-04-03T14:09:43;4.03;;;1.58;;
52742;SDS011;55583;53.012;6.556;2023-04-03T14:12:13;3.97;;;1.30;;
52742;SDS011;55583;53.012;6.556;2023-04-03T14:14:44;3.28;;;1.50;;
52742;SDS011;55583;53.012;6.556;2023-04-03T14:17:18;2.38;;;1.60;;
52742;SDS011;55583;53.012;6.556;2023-04-03T14:19:46;1.92;;;1.38;;
52742;SDS011;55583;53.012;6.556;2023-04-03T14:22:46;2.70;;;1.20;;
52742;SDS011;55583;53.012;6.556;2023-04-03T14:25:05;3.50;;;1.25;;
52742;SDS011;55583;53.012;6.556;2023-04-03T14:27:42;1.63;;;1.15;;
52742;SDS011;55583;53.012;6.556;2023-04-03T14:30:21;2.15;;;1.33;;
52742;SDS011;55583;53.012;6.556;2023-04-03T14:32:54;2.60;;;1.45;;
52742;SDS011;55583;53.012;6.556;2023-04-03T14:35:26;3.28;;;1.27;;
52742;SDS011;55583;53.012;6.556;2023-04-03T14:37:52;1.85;;;1.33;;
52742;SDS011;55583;53.012;6.556;2023-04-03T14:40:20;2.42;;;1.30;;
52742;SDS011;55583;53.012;6.556;2023-04-03T14:42:50;1.88;;;0.85;;
52742;SDS011;55583;53.012;6.556;2023-04-03T14:45:17;2.45;;;1.20;;
52742;SDS011;55583;53.012;6.556;2023-04-03T14:47:47;2.75;;;1.15;;
52742;SDS011;55583;53.012;6.556;2023-04-03T14:50:16;1.20;;;1.00;;
52742;SDS011;55583;53.012;6.556;2023-04-03T14:52:45;4.22;;;1.08;;
52742;SDS011;55583;53.012;6.556;2023-04-03T14:55:14;2.83;;;1.20;;
52742;SDS011;55583;53.012;6.556;2023-04-03T14:57:41;1.75;;;1.25;;
52742;SDS011;55583;53.012;6.556;2023-04-03T15:00:10;2.88;;;1.40;;
52742;SDS011;55583;53.012;6.556;2023-04-03T15:02:41;4.47;;;1.88;;
52742;SDS011;55583;53.012;6.556;2023-04-03T15:05:08;3.10;;;1.50;;
52742;SDS011;55583;53.012;6.556;2023-04-03T15:07:36;2.35;;;1.35;;
52742;SDS011;55583;53.012;6.556;2023-04-03T15:10:18;1.95;;;1.23;;
52742;SDS011;55583;53.012;6.556;2023-04-03T15:12:48;3.67;;;1.15;;
52742;SDS011;55583;53.012;6.556;2023-04-03T15:15:15;4.53;;;1.40;;
52742;SDS011;55583;53.012;6.556;2023-04-03T15:17:44;3.22;;;1.10;;
52742;SDS011;55583;53.012;6.556;2023-04-03T15:20:14;2.78;;;1.33;;
52742;SDS011;55583;53.012;6.556;2023-04-03T15:22:45;2.03;;;1.10;;
52742;SDS011;55583;53.012;6.556;2023-04-03T15:25:11;2.38;;;0.90;;
52742;SDS011;55583;53.012;6.556;2023-04-03T15:27:38;2.22;;;1.08;;
52742;SDS011;55583;53.012;6.556;2023-04-03T15:30:05;2.97;;;1.30;;
52742;SDS011;55583;53.012;6.556;2023-04-03T15:32:33;1.95;;;0.90;;
52742;SDS011;55583;53.012;6.556;2023-04-03T15:35:00;2.85;;;1.05;;
52742;SDS011;55583;53.012;6.556;2023-04-03T15:37:26;1.25;;;0.77;;
52742;SDS011;55583;53.012;6.556;2023-04-03T15:39:51;2.42;;;1.25;;
52742;SDS011;55583;53.012;6.556;2023-04-03T15:42:17;2.40;;;1.17;;
52742;SDS011;55583;53.012;6.556;2023-04-03T15:44:43;3.72;;;1.70;;
52742;SDS011;55583;53.012;6.556;2023-04-03T15:47:08;4.18;;;1.10;;
52742;SDS011;55583;53.012;6.556;2023-04-03T15:49:34;2.53;;;0.90;;
52742;SDS011;55583;53.012;6.556;2023-04-03T15:52:00;2.33;;;1.27;;
52742;SDS011;55583;53.012;6.556;2023-04-03T15:54:26;2.65;;;1.50;;
52742;SDS011;55583;53.012;6.556;2023-04-03T15:56:54;2.30;;;1.20;;
52742;SDS011;55583;53.012;6.556;2023-04-03T15:59:20;3.70;;;1.52;;
52742;SDS011;55583;53.012;6.556;2023-04-03T16:01:46;3.85;;;1.60;;
52742;SDS011;55583;53.012;6.556;2023-04-03T16:04:13;2.95;;;1.73;;
52742;SDS011;55583;53.012;6.556;2023-04-03T16:06:39;5.25;;;1.63;;
52742;SDS011;55583;53.012;6.556;2023-04-03T16:09:06;2.72;;;1.48;;
52742;SDS011;55583;53.012;6.556;2023-04-03T16:11:32;2.65;;;1.48;;
52742;SDS011;55583;53.012;6.556;2023-04-03T16:14:00;2.85;;;1.48;;
52742;SDS011;55583;53.012;6.556;2023-04-03T16:16:25;2.60;;;1.38;;
52742;SDS011;55583;53.012;6.556;2023-04-03T16:18:53;4.13;;;1.60;;
52742;SDS011;55583;53.012;6.556;2023-04-03T16:21:20;3.35;;;1.67;;
52742;SDS011;55583;53.012;6.556;2023-04-03T16:23:46;3.05;;;1.80;;
52742;SDS011;55583;53.012;6.556;2023-04-03T16:26:11;3.50;;;1.88;;
52742;SDS011;55583;53.012;6.556;2023-04-03T16:28:38;3.65;;;1.40;;
52742;SDS011;55583;53.012;6.556;2023-04-03T16:31:04;4.45;;;2.00;;
52742;SDS011;55583;53.012;6.556;2023-04-03T16:33:30;2.97;;;1.20;;
52742;SDS011;55583;53.012;6.556;2023-04-03T16:35:56;3.78;;;1.50;;
52742;SDS011;55583;53.012;6.556;2023-04-03T16:38:22;2.00;;;1.05;;
52742;SDS011;55583;53.012;6.556;2023-04-03T16:40:48;2.70;;;1.35;;
52742;SDS011;55583;53.012;6.556;2023-04-03T16:43:14;5.95;;;1.20;;
52742;SDS011;55583;53.012;6.556;2023-04-03T16:45:40;2.88;;;1.13;;
52742;SDS011;55583;53.012;6.556;2023-04-03T16:48:06;3.35;;;1.63;;
52742;SDS011;55583;53.012;6.556;2023-04-03T16:50:32;1.33;;;0.93;;
52742;SDS011;55583;53.012;6.556;2023-04-03T16:52:58;3.45;;;1.10;;
52742;SDS011;55583;53.012;6.556;2023-04-03T16:55:27;5.70;;;1.10;;
52742;SDS011;55583;53.012;6.556;2023-04-03T16:57:52;3.45;;;1.08;;
52742;SDS011;55583;53.012;6.556;2023-04-03T17:00:19;2.63;;;1.33;;
52742;SDS011;55583;53.012;6.556;2023-04-03T17:02:45;2.03;;;1.02;;
52742;SDS011;55583;53.012;6.556;2023-04-03T17:05:10;3.45;;;1.08;;